• Join FlightAware (Why Join?)
  • Login
  • US Flag 
07:11PM EDT


 

Airport Tracker/Info


-or-


 

Live Flight TrackerFlight Track Log ✈ UAL4202 ✈ 15-Apr-2013 ✈ KEWR - KSTL

Flight Track Log - Related Links

Times and Time Zones

All times are in EDT time to prevent confusion due to time zone crossing. See the UAL4202 flight status page for this flight to view local times or setup timezone preferences in your user account.

Time Position Orientation Groundspeed Altitude Reporting Facility
EDT Latitude Longitude Course Direction KTS MPH feet Rate Location/Type
05:25PM 40.6667 -74.1833 270° West 161 185 500  Level New York TRACON
05:26PM 40.6333 -74.2000 201° Southwest 199 229 2,400 1,920 Climbing New York TRACON
05:26PM 40.6333 -74.2833 270° West 249 287 4,200 2,100 Climbing New York TRACON
05:27PM 40.6833 -74.3500 315° West 251 289 6,500 2,040 Climbing New York TRACON
05:28PM 40.6834 -74.6852 270° West  Level FlightAware Approximate
05:28PM 40.7333 -74.4167 315° West 271 312 8,300  Level New York TRACON
05:29PM 40.6834 -74.8149 270° West  Level FlightAware Approximate
05:29PM 40.7833 -74.5000 308° West 294 338 10,000  Level New York TRACON
05:30PM 40.6833 -74.9445 270° West  Level FlightAware Approximate
05:32PM 40.7506 -74.7567 261° West 335 386 12,000  Level New York Center
05:33PM 40.7256 -74.8783 255° West 350 403 13,600 1,440 Climbing New York Center
05:34PM 40.7006 -74.9947 254° West 345 397 15,000 960 Climbing New York Center
05:35PM 40.6672 -75.1131 250° West 345 397 15,600 660 Climbing New York Center
05:36PM 40.6197 -75.2139 238° Southwest 351 404 16,300 840 Climbing New York Center
05:37PM 40.5694 -75.3281 240° Southwest 369 425 17,300 840 Climbing New York Center
05:38PM 40.5150 -75.4447 238° Southwest 375 432 18,000 900 Climbing New York Center
05:39PM 40.4578 -75.5717 239° Southwest 375 432 19,200 1,260 Climbing New York Center
05:40PM 40.4097 -75.6747 239° Southwest 375 432 20,600 1,380 Climbing New York Center
05:41PM 40.3589 -75.7908 240° Southwest 370 426 22,100 1,440 Climbing New York Center
05:42PM 40.3042 -75.8986 236° Southwest 370 426 23,600 1,200 Climbing New York Center
05:43PM 40.2536 -76.0089 239° Southwest 370 426 24,600 780 Climbing New York Center
05:44PM 40.2008 -76.1192 238° Southwest 370 426 25,200 540 Climbing New York Center
05:45PM 40.1472 -76.2428 240° Southwest 375 432 25,700 720 Climbing New York Center
05:46PM 40.0936 -76.3606 239° Southwest 382 440 26,700 900 Climbing New York Center
05:47PM 40.0403 -76.4758 239° Southwest 382 440 27,600 900 Climbing New York Center
05:48PM 39.9867 -76.5878 238° Southwest 377 434 28,600 1,020 Climbing New York Center
05:50PM 39.8719 -76.8297 238° Southwest 378 435 30,800 1,020 Climbing Washington Center
05:51PM 39.8208 -76.9394 239° Southwest 378 435 31,800 960 Climbing Washington Center
05:52PM 39.7694 -77.0467 238° Southwest 367 422 32,800 960 Climbing Washington Center
05:53PM 39.7181 -77.1561 239° Southwest 361 415 33,800 960 Climbing Washington Center
05:54PM 39.6667 -77.2628 238° Southwest 361 415 34,800 960 Climbing Washington Center
05:55PM 39.6194 -77.3642 239° Southwest 351 404 35,800 600 Climbing Washington Center
05:56PM 39.5700 -77.4678 238° Southwest 346 398 36,000 60 Climbing Washington Center
05:57PM 39.5181 -77.5742 238° Southwest 346 398 36,000  Level Washington Center
05:58PM 39.4619 -77.6883 238° Southwest 351 404 36,000  Level Washington Center
05:59PM 39.4081 -77.8022 239° Southwest 364 419 36,000  Level Washington Center
06:00PM 39.3556 -77.9267 241° Southwest 377 434 36,000  Level Washington Center
06:01PM 39.3072 -78.0514 243° Southwest 388 447 36,000  Level Washington Center
06:02PM 39.2567 -78.1756 242° Southwest 388 447 36,000  Level Washington Center
06:03PM 39.2106 -78.2864 242° Southwest 393 452 36,000  Level Washington Center
06:04PM 39.1597 -78.4103 242° Southwest 393 452 36,000  Level Washington Center
06:05PM 39.1089 -78.5342 242° Southwest 393 452 36,000  Level Washington Center
06:06PM 39.0597 -78.6631 244° Southwest 398 458 36,000  Level Washington Center
06:07PM 39.0108 -78.7839 243° Southwest 398 458 36,000  Level Washington Center
06:08PM 38.9572 -78.9097 241° Southwest 398 458 36,000  Level Washington Center
06:09PM 38.9369 -79.0422 259° West 393 452 36,000  Level Washington Center
06:10PM 38.9225 -79.1750 262° West 388 447 36,000  Level Washington Center
06:11PM 38.9100 -79.3158 264° West 388 447 36,000  Level Washington Center
06:12PM 38.8933 -79.4483 261° West 388 447 36,000  Level Washington Center
06:13PM 38.8842 -79.6025 266° West 388 447 36,000  Level Washington Center
06:14PM 38.8711 -79.7406 263° West 393 452 36,000  Level Washington Center
06:15PM 38.8789 -79.8717 274° West 381 438 36,000  Level Washington Center
06:16PM 38.9075 -80.0014 286° West 381 438 36,000  Level Washington Center
06:18PM 38.9561 -80.2239 286° West 381 438 36,000  Level Indianapolis Center
06:19PM 38.9797 -80.3572 283° West 383 441 36,000  Level Indianapolis Center
06:20PM 38.9831 -80.4939 272° West 383 441 36,000  Level Indianapolis Center
06:21PM 38.9942 -80.6283 276° West 381 438 36,000  Level Indianapolis Center
06:22PM 39.0069 -80.7636 277° West 382 440 36,000  Level Indianapolis Center
06:23PM 39.0178 -80.8981 276° West 380 437 36,000  Level Indianapolis Center
06:24PM 39.0311 -81.0600 276° West 381 438 36,000  Level Indianapolis Center
06:25PM 39.0431 -81.1958 277° West 384 442 36,000  Level Indianapolis Center
06:26PM 39.0533 -81.3306 276° West 383 441 36,000  Level Indianapolis Center
06:27PM 39.0642 -81.4650 276° West 381 438 36,000  Level Indianapolis Center
06:28PM 39.0753 -81.6017 276° West 382 440 36,000  Level Indianapolis Center
06:29PM 39.0869 -81.7619 275° West 383 441 36,000  Level Indianapolis Center
06:30PM 39.0972 -81.8967 276° West 381 438 36,000  Level Indianapolis Center
06:31PM 39.1064 -82.0328 275° West 383 441 36,000  Level Indianapolis Center
06:32PM 39.1161 -82.1692 275° West 383 441 36,000  Level Indianapolis Center
06:33PM 39.1267 -82.3053 276° West 384 442 36,000  Level Indianapolis Center
06:34PM 39.1350 -82.4417 275° West 383 441 36,000  Level Indianapolis Center
06:35PM 39.1469 -82.6053 275° West 382 440 36,000  Level Indianapolis Center
06:36PM 39.1556 -82.7414 275° West 382 440 36,000  Level Indianapolis Center
06:37PM 39.1647 -82.8769 275° West 380 437 36,000  Level Indianapolis Center
06:38PM 39.1731 -83.0131 275° West 383 441 36,000  Level Indianapolis Center
06:39PM 39.1833 -83.1608 275° West 379 436 36,000  Level Indianapolis Center
06:40PM 39.1917 -83.2989 274° West 381 438 36,000  Level Indianapolis Center
06:41PM 39.2006 -83.4392 275° West 381 438 36,000  Level Indianapolis Center
06:42PM 39.2089 -83.5733 275° West 380 437 36,000  Level Indianapolis Center
06:43PM 39.2169 -83.7081 274° West 374 430 36,000  Level Indianapolis Center
06:44PM 39.2239 -83.8400 274° West 367 422 36,000  Level Indianapolis Center
06:45PM 39.2322 -83.9942 274° West 365 420 36,000  Level Indianapolis Center
06:46PM 39.2403 -84.1283 274° West 370 426 36,000  Level Indianapolis Center
06:47PM 39.2478 -84.2664 274° West 379 436 36,000  Level Indianapolis Center
06:49PM 39.2556 -84.4042 274° West 381 438 36,000  Level Indianapolis Center
06:50PM 39.2631 -84.5400 274° West 377 434 36,000  Level Indianapolis Center
06:51PM 39.2694 -84.6767 273° West 378 435 36,000  Level Indianapolis Center
06:52PM 39.2764 -84.8133 274° West 378 435 36,000  Level Indianapolis Center
06:53PM 39.2817 -84.9489 273° West 375 432 36,000  Level Indianapolis Center
06:54PM 39.2889 -85.0842 274° West 374 430 36,000  Level Indianapolis Center
06:55PM 39.2953 -85.2419 273° West 374 430 36,000  Level Indianapolis Center
06:56PM 39.3017 -85.3764 274° West 372 428 36,000  Level Indianapolis Center
06:57PM 39.3078 -85.5122 273° West 375 432 36,000  Level Indianapolis Center
06:58PM 39.3128 -85.6428 273° West 371 427 36,000  Level Indianapolis Center
06:59PM 39.3189 -85.7772 273° West 372 428 36,000  Level Indianapolis Center
07:00PM 39.3261 -85.9128 274° West 377 434 36,000  Level Indianapolis Center
07:01PM 39.3306 -86.0456 273° West 373 429 36,000  Level Indianapolis Center
07:02PM 39.3358 -86.1794 273° West 374 430 36,000  Level Indianapolis Center
07:03PM 39.3411 -86.3403 272° West 373 429 36,000  Level Indianapolis Center
07:04PM 39.3461 -86.4725 273° West 371 427 36,000  Level Indianapolis Center
07:05PM 39.3503 -86.6086 272° West 377 434 36,000  Level Indianapolis Center
07:06PM 39.3544 -86.7417 272° West 373 429 36,000 -300 Level Indianapolis Center
07:07PM 39.3594 -86.8767 273° West 376 433 35,500 -780 Descending Indianapolis Center
07:08PM 39.3636 -87.0128 272° West 379 436 34,500 -1,020 Descending Indianapolis Center
07:09PM 39.3681 -87.1461 273° West 375 432 33,500 -1,080 Descending Indianapolis Center
07:10PM 39.3725 -87.3036 272° West 368 423 32,300 -1,080 Descending Indianapolis Center
07:11PM 39.3756 -87.4406 272° West 378 435 31,300 -1,020 Descending Indianapolis Center
07:12PM 39.3797 -87.5819 272° West 391 450 30,300 -660 Descending Indianapolis Center
07:13PM 39.3825 -87.7236 271° West 393 452 30,000 -600 Descending Indianapolis Center
07:14PM 39.3867 -87.8644 272° West 394 453 29,100 -1,140 Descending Indianapolis Center
07:15PM 39.3897 -87.9511 273° West 393 452 28,300 -720 Descending Kansas City Center
07:16PM 39.3794 -88.0928 265° West 396 456 28,000 -180 Descending Kansas City Center
07:17PM 39.3450 -88.2314 252° West 402 463 28,000  Level Kansas City Center
07:18PM 39.3075 -88.3658 250° West 398 458 28,000  Level Kansas City Center
07:19PM 39.2722 -88.5006 251° West 397 457 28,000  Level Kansas City Center
07:20PM 39.2311 -88.6519 251° West 396 456 28,000  Level Kansas City Center
07:21PM 39.1950 -88.7856 251° West 396 456 28,000 -240 Level Kansas City Center
07:22PM 39.1597 -88.9136 250° West 386 444 27,500 -1,320 Descending Kansas City Center
07:23PM 39.1247 -89.0500 252° West 361 415 25,300 -2,040 Descending Kansas City Center
07:24PM 39.0917 -89.1681 250° West 351 404 23,400 -1,860 Descending Kansas City Center
07:25PM 39.0778 -89.1725 194° South 327 376 22,500 -1,800 Descending FAA TRACON SMA TRACON (SMA)
07:25PM 39.0708 -89.2075 256° West 328 377 21,900 -1,680 Descending FAA TRACON SMA TRACON (SMA)
07:25PM 39.0625 -89.2417 253° West 325 374 21,400 -1,800 Descending FAA TRACON SMA TRACON (SMA)
07:26PM 39.0531 -89.2847 254° West 324 373 20,700 -1,800 Descending FAA TRACON SMA TRACON (SMA)
07:26PM 39.0456 -89.3192 254° West 325 374 20,200 -1,500 Descending FAA TRACON SMA TRACON (SMA)
07:26PM 39.0369 -89.3533 252° West 326 375 19,700 -1,800 Descending FAA TRACON SMA TRACON (SMA)
07:27PM 39.0264 -89.3969 253° West 330 380 19,000 -1,980 Descending FAA TRACON SMA TRACON (SMA)
07:27PM 39.0189 -89.4314 254° West 329 379 18,400 -1,980 Descending FAA TRACON SMA TRACON (SMA)
07:27PM 39.0108 -89.4656 253° West 325 374 17,700 -1,800 Descending FAA TRACON SMA TRACON (SMA)
07:28PM 39.0008 -89.5061 252° West 313 360 17,200 -1,500 Descending FAA TRACON SMA TRACON (SMA)
07:28PM 38.9925 -89.5375 251° West 306 352 16,700 -1,500 Descending FAA TRACON SMA TRACON (SMA)
07:28PM 38.9839 -89.5689 251° West 302 348 16,200 -1,800 Descending FAA TRACON SMA TRACON (SMA)
07:29PM 38.9708 -89.6069 246° West 301 346 15,500 -1,800 Descending FAA TRACON SMA TRACON (SMA)
07:29PM 38.9606 -89.6367 246° West 297 342 15,000 -1,680 Descending FAA TRACON SMA TRACON (SMA)
07:29PM 38.9500 -89.6747 250° West 295 339 14,400 -1,500 Descending FAA TRACON SMA TRACON (SMA)
07:30PM 38.9403 -89.7036 247° West 289 333 14,000 -1,260 Descending FAA TRACON SMA TRACON (SMA)
07:30PM 38.9311 -89.7328 248° West 287 330 13,600 -1,080 Descending FAA TRACON SMA TRACON (SMA)
07:30PM 38.9214 -89.7619 247° West 287 330 13,300 -1,320 Descending FAA TRACON SMA TRACON (SMA)
07:31PM 38.9097 -89.7981 247° West 287 330 12,700 -1,500 Descending FAA TRACON SMA TRACON (SMA)
07:31PM 38.9006 -89.8272 248° West 284 327 12,300 -1,260 Descending FAA TRACON SMA TRACON (SMA)
07:31PM 38.8914 -89.8553 247° West 281 323 11,900 -1,200 Descending FAA TRACON SMA TRACON (SMA)
07:32PM 38.8803 -89.8906 248° West 278 320 11,500 -1,200 Descending FAA TRACON SMA TRACON (SMA)
07:32PM 38.8719 -89.9178 249° West 272 313 11,100 -1,260 Descending FAA TRACON SMA TRACON (SMA)
07:32PM 38.8631 -89.9436 246° West 259 298 10,700 -1,320 Descending FAA TRACON SMA TRACON (SMA)
07:33PM 38.8528 -89.9742 247° West 243 280 10,200 -1,380 Descending FAA TRACON SMA TRACON (SMA)
07:33PM 38.8458 -89.9981 250° West 234 269 9,800 -1,080 Descending FAA TRACON SMA TRACON (SMA)
07:33PM 38.8386 -90.0208 248° West 227 261 9,500 -1,080 Descending FAA TRACON SMA TRACON (SMA)
07:34PM 38.8292 -90.0486 246° West 223 257 9,100 -1,080 Descending FAA TRACON SMA TRACON (SMA)
07:34PM 38.8219 -90.0703 247° West 218 251 8,800 -900 Descending FAA TRACON SMA TRACON (SMA)
07:34PM 38.8150 -90.0922 248° West 216 249 8,500 -1,080 Descending FAA TRACON SMA TRACON (SMA)
07:35PM 38.8064 -90.1194 248° West 215 247 8,100 -780 Descending FAA TRACON SMA TRACON (SMA)
07:35PM 38.7992 -90.1414 247° West 215 247 8,000 -360 Descending FAA TRACON SMA TRACON (SMA)
07:35PM 38.7972 -90.1647 264° West 219 252 7,900 -780 Descending FAA TRACON SMA TRACON (SMA)
07:36PM 38.8064 -90.1928 293° West 226 260 7,500 -1,080 Descending FAA TRACON SMA TRACON (SMA)
07:36PM 38.8167 -90.2142 302° West 230 265 7,200 -780 Descending FAA TRACON SMA TRACON (SMA)
07:36PM 38.8264 -90.2353 301° West 225 259 7,000 -480 Descending FAA TRACON SMA TRACON (SMA)
07:37PM 38.8386 -90.2622 300° West 226 260 6,900 -600 Descending FAA TRACON SMA TRACON (SMA)
07:37PM 38.8483 -90.2836 300° West 226 260 6,600 -1,440 Descending FAA TRACON SMA TRACON (SMA)
07:37PM 38.8575 -90.3050 299° West 224 258 6,000 -1,800 Descending FAA TRACON SMA TRACON (SMA)
07:38PM 38.8694 -90.3314 300° West 221 254 5,400 -1,380 Descending FAA TRACON SMA TRACON (SMA)
07:38PM 38.8783 -90.3517 299° West 216 249 5,100 -960 Descending FAA TRACON SMA TRACON (SMA)
07:38PM 38.8889 -90.3753 300° West 201 231 4,800 -900 Descending FAA TRACON SMA TRACON (SMA)
07:39PM 38.8969 -90.3931 300° West 191 220 4,500 -900 Descending FAA TRACON SMA TRACON (SMA)
07:39PM 38.9056 -90.4136 298° West 203 234 4,200 -960 Descending FAA TRACON SMA TRACON (SMA)
07:39PM 38.9167 -90.4397 299° West 214 246 3,900 -480 Descending FAA TRACON SMA TRACON (SMA)
07:40PM 38.9244 -90.4608 295° West 216 249 3,900  Level FAA TRACON SMA TRACON (SMA)
07:40PM 38.9256 -90.4817 274° West 211 243 3,900 -480 Level FAA TRACON SMA TRACON (SMA)
07:40PM 38.9119 -90.4978 223° Southwest 193 222 3,600 -1,200 Descending FAA TRACON SMA TRACON (SMA)
07:41PM 38.8992 -90.5089 214° Southwest 179 206 3,100 -1,080 Descending FAA TRACON SMA TRACON (SMA)
07:41PM 38.8858 -90.5203 214° Southwest 182 209 2,900 -360 Descending FAA TRACON SMA TRACON (SMA)
07:41PM 38.8672 -90.5281 198° South 192 221 2,900  Level FAA TRACON SMA TRACON (SMA)
07:42PM 38.8528 -90.5189 154° Southeast 195 224 2,900  Level FAA TRACON SMA TRACON (SMA)
07:42PM 38.8389 -90.5078 148° Southeast 193 222 2,900  Level FAA TRACON SMA TRACON (SMA)
07:42PM 38.8225 -90.4906 141° Southeast 198 228 2,900 -480 Level FAA TRACON SMA TRACON (SMA)
07:43PM 38.8133 -90.4728 123° Southeast 197 227 2,600 -900 Descending FAA TRACON SMA TRACON (SMA)
07:43PM 38.8044 -90.4553 123° Southeast 194 223 2,300 -960 Descending FAA TRACON SMA TRACON (SMA)
07:43PM 38.7947 -90.4356 122° Southeast 174 200 2,000 -780 Descending FAA TRACON SMA TRACON (SMA)
07:44PM 38.7878 -90.4219 123° Southeast 154 177 1,800 -780 Descending FAA TRACON SMA TRACON (SMA)
07:44PM 38.7817 -90.4086 120° Southeast 142 163 1,500 -960 Descending FAA TRACON SMA TRACON (SMA)
07:44PM 38.7736 -90.3925 123° Southeast 139 160 1,200 -780 Descending FAA TRACON SMA TRACON (SMA)
07:45PM 38.7672 -90.3789 121° Southeast 142 163 1,000 -600 Descending FAA TRACON SMA TRACON (SMA)
07:45PM 38.7603 -90.3656 124° Southeast 145 167 800 -660 Descending FAA TRACON SMA TRACON (SMA)
07:45PM 38.7553 -90.3553 122° Southeast 147 169 600 -600 Descending FAA TRACON SMA TRACON (SMA)